sensor_id;sensor_type;location;lat;lon;timestamp;P1;durP1;ratioP1;P2;durP2;ratioP2
54705;SDS011;40603;48.774;8.916;2022-10-31T00:00:14;13.25;;;5.20;;
54705;SDS011;40603;48.774;8.916;2022-10-31T00:02:40;10.88;;;4.35;;
54705;SDS011;40603;48.774;8.916;2022-10-31T00:05:05;11.70;;;4.35;;
54705;SDS011;40603;48.774;8.916;2022-10-31T00:07:31;8.85;;;4.93;;
54705;SDS011;40603;48.774;8.916;2022-10-31T00:09:56;9.20;;;4.72;;
54705;SDS011;40603;48.774;8.916;2022-10-31T00:12:22;8.70;;;3.88;;
54705;SDS011;40603;48.774;8.916;2022-10-31T00:14:47;9.13;;;4.57;;
54705;SDS011;40603;48.774;8.916;2022-10-31T00:17:12;6.75;;;3.88;;
54705;SDS011;40603;48.774;8.916;2022-10-31T00:19:38;8.68;;;4.40;;
54705;SDS011;40603;48.774;8.916;2022-10-31T00:22:03;11.88;;;4.45;;
54705;SDS011;40603;48.774;8.916;2022-10-31T00:24:28;5.60;;;3.72;;
54705;SDS011;40603;48.774;8.916;2022-10-31T00:26:53;7.70;;;3.65;;
54705;SDS011;40603;48.774;8.916;2022-10-31T00:29:19;6.20;;;4.20;;
54705;SDS011;40603;48.774;8.916;2022-10-31T00:31:44;5.90;;;3.85;;
54705;SDS011;40603;48.774;8.916;2022-10-31T00:34:09;6.75;;;3.63;;
54705;SDS011;40603;48.774;8.916;2022-10-31T00:36:35;5.82;;;3.60;;
54705;SDS011;40603;48.774;8.916;2022-10-31T00:39:00;9.18;;;3.85;;
54705;SDS011;40603;48.774;8.916;2022-10-31T00:41:26;6.53;;;3.70;;
54705;SDS011;40603;48.774;8.916;2022-10-31T00:43:51;5.53;;;3.60;;
54705;SDS011;40603;48.774;8.916;2022-10-31T00:46:16;10.98;;;3.65;;
54705;SDS011;40603;48.774;8.916;2022-10-31T00:48:42;8.30;;;3.40;;
54705;SDS011;40603;48.774;8.916;2022-10-31T00:51:07;9.77;;;3.65;;
54705;SDS011;40603;48.774;8.916;2022-10-31T00:53:32;5.22;;;3.25;;
54705;SDS011;40603;48.774;8.916;2022-10-31T00:55:58;5.93;;;3.38;;
54705;SDS011;40603;48.774;8.916;2022-10-31T00:58:23;7.72;;;3.67;;
54705;SDS011;40603;48.774;8.916;2022-10-31T01:00:49;5.07;;;2.83;;
54705;SDS011;40603;48.774;8.916;2022-10-31T01:03:23;7.05;;;3.88;;
54705;SDS011;40603;48.774;8.916;2022-10-31T01:06:03;6.28;;;3.72;;
54705;SDS011;40603;48.774;8.916;2022-10-31T01:08:30;22.63;;;5.43;;
54705;SDS011;40603;48.774;8.916;2022-10-31T01:13:45;14.45;;;5.32;;
54705;SDS011;40603;48.774;8.916;2022-10-31T01:16:12;16.42;;;4.72;;
54705;SDS011;40603;48.774;8.916;2022-10-31T01:18:39;14.32;;;4.45;;
54705;SDS011;40603;48.774;8.916;2022-10-31T01:21:06;11.25;;;3.63;;
54705;SDS011;40603;48.774;8.916;2022-10-31T01:23:34;3.92;;;2.83;;
54705;SDS011;40603;48.774;8.916;2022-10-31T01:26:04;5.07;;;2.90;;
54705;SDS011;40603;48.774;8.916;2022-10-31T01:28:31;6.78;;;3.60;;
54705;SDS011;40603;48.774;8.916;2022-10-31T01:30:59;7.82;;;3.55;;
54705;SDS011;40603;48.774;8.916;2022-10-31T01:33:26;14.52;;;3.13;;
54705;SDS011;40603;48.774;8.916;2022-10-31T01:35:51;7.40;;;3.40;;
54705;SDS011;40603;48.774;8.916;2022-10-31T01:38:16;8.35;;;3.70;;
54705;SDS011;40603;48.774;8.916;2022-10-31T01:40:42;8.38;;;3.65;;
54705;SDS011;40603;48.774;8.916;2022-10-31T01:43:10;5.25;;;3.13;;
54705;SDS011;40603;48.774;8.916;2022-10-31T01:45:37;5.93;;;3.50;;
54705;SDS011;40603;48.774;8.916;2022-10-31T01:48:03;7.07;;;3.30;;
54705;SDS011;40603;48.774;8.916;2022-10-31T01:50:30;12.18;;;3.60;;
54705;SDS011;40603;48.774;8.916;2022-10-31T01:52:58;6.85;;;3.63;;
54705;SDS011;40603;48.774;8.916;2022-10-31T01:55:26;10.10;;;4.18;;
54705;SDS011;40603;48.774;8.916;2022-10-31T01:57:54;13.60;;;5.20;;
54705;SDS011;40603;48.774;8.916;2022-10-31T02:00:20;17.75;;;4.43;;
54705;SDS011;40603;48.774;8.916;2022-10-31T02:02:46;15.90;;;5.20;;
54705;SDS011;40603;48.774;8.916;2022-10-31T02:05:14;12.75;;;4.57;;
54705;SDS011;40603;48.774;8.916;2022-10-31T02:10:09;21.77;;;5.43;;
54705;SDS011;40603;48.774;8.916;2022-10-31T02:12:34;12.93;;;4.97;;
54705;SDS011;40603;48.774;8.916;2022-10-31T02:15:01;11.85;;;4.20;;
54705;SDS011;40603;48.774;8.916;2022-10-31T02:17:27;14.85;;;4.88;;
54705;SDS011;40603;48.774;8.916;2022-10-31T02:28:21;6.18;;;3.40;;
54705;SDS011;40603;48.774;8.916;2022-10-31T02:31:09;5.40;;;3.35;;
54705;SDS011;40603;48.774;8.916;2022-10-31T02:36:17;4.88;;;3.25;;
54705;SDS011;40603;48.774;8.916;2022-10-31T02:41:37;10.35;;;4.00;;
54705;SDS011;40603;48.774;8.916;2022-10-31T02:44:16;13.73;;;3.70;;
54705;SDS011;40603;48.774;8.916;2022-10-31T02:46:54;10.10;;;4.13;;
54705;SDS011;40603;48.774;8.916;2022-10-31T02:51:59;10.43;;;3.92;;
54705;SDS011;40603;48.774;8.916;2022-10-31T02:54:24;9.95;;;3.65;;
54705;SDS011;40603;48.774;8.916;2022-10-31T02:56:53;16.30;;;3.45;;
54705;SDS011;40603;48.774;8.916;2022-10-31T02:59:21;7.10;;;2.90;;
54705;SDS011;40603;48.774;8.916;2022-10-31T03:04:31;4.22;;;2.83;;
54705;SDS011;40603;48.774;8.916;2022-10-31T03:10:27;7.38;;;3.03;;
54705;SDS011;40603;48.774;8.916;2022-10-31T03:13:02;8.40;;;3.25;;
54705;SDS011;40603;48.774;8.916;2022-10-31T03:15:32;9.50;;;3.58;;
54705;SDS011;40603;48.774;8.916;2022-10-31T03:18:00;7.70;;;3.22;;
54705;SDS011;40603;48.774;8.916;2022-10-31T03:20:30;9.23;;;2.85;;
54705;SDS011;40603;48.774;8.916;2022-10-31T03:23:12;7.47;;;4.03;;
54705;SDS011;40603;48.774;8.916;2022-10-31T03:25:39;6.90;;;3.28;;
54705;SDS011;40603;48.774;8.916;2022-10-31T03:28:05;7.85;;;2.90;;
54705;SDS011;40603;48.774;8.916;2022-10-31T03:30:32;7.00;;;3.47;;
54705;SDS011;40603;48.774;8.916;2022-10-31T03:32:59;4.95;;;3.22;;
54705;SDS011;40603;48.774;8.916;2022-10-31T03:35:25;3.83;;;2.67;;
54705;SDS011;40603;48.774;8.916;2022-10-31T03:37:52;7.57;;;3.25;;
54705;SDS011;40603;48.774;8.916;2022-10-31T03:40:19;9.88;;;3.15;;
54705;SDS011;40603;48.774;8.916;2022-10-31T03:42:47;10.45;;;3.35;;
54705;SDS011;40603;48.774;8.916;2022-10-31T03:47:49;6.95;;;3.13;;
54705;SDS011;40603;48.774;8.916;2022-10-31T03:50:15;5.47;;;3.35;;
54705;SDS011;40603;48.774;8.916;2022-10-31T03:52:45;13.13;;;3.90;;
54705;SDS011;40603;48.774;8.916;2022-10-31T03:55:35;5.90;;;3.30;;
54705;SDS011;40603;48.774;8.916;2022-10-31T03:58:09;4.50;;;2.90;;
54705;SDS011;40603;48.774;8.916;2022-10-31T04:00:40;6.43;;;3.03;;
54705;SDS011;40603;48.774;8.916;2022-10-31T04:03:15;3.80;;;2.75;;
54705;SDS011;40603;48.774;8.916;2022-10-31T04:05:48;19.58;;;3.38;;
54705;SDS011;40603;48.774;8.916;2022-10-31T04:08:15;5.82;;;3.10;;
54705;SDS011;40603;48.774;8.916;2022-10-31T04:10:42;8.07;;;3.00;;
54705;SDS011;40603;48.774;8.916;2022-10-31T04:13:10;7.57;;;3.00;;
54705;SDS011;40603;48.774;8.916;2022-10-31T04:15:38;4.55;;;3.10;;
54705;SDS011;40603;48.774;8.916;2022-10-31T04:18:03;6.20;;;3.20;;
54705;SDS011;40603;48.774;8.916;2022-10-31T04:20:34;4.93;;;2.60;;
54705;SDS011;40603;48.774;8.916;2022-10-31T04:23:00;3.53;;;2.65;;
54705;SDS011;40603;48.774;8.916;2022-10-31T04:25:26;6.28;;;3.10;;
54705;SDS011;40603;48.774;8.916;2022-10-31T04:27:51;6.65;;;3.38;;
54705;SDS011;40603;48.774;8.916;2022-10-31T04:30:17;9.23;;;3.55;;
54705;SDS011;40603;48.774;8.916;2022-10-31T04:32:42;5.88;;;2.83;;
54705;SDS011;40603;48.774;8.916;2022-10-31T04:35:07;4.20;;;2.85;;
54705;SDS011;40603;48.774;8.916;2022-10-31T04:37:33;5.35;;;3.10;;
54705;SDS011;40603;48.774;8.916;2022-10-31T04:39:58;7.65;;;3.40;;
54705;SDS011;40603;48.774;8.916;2022-10-31T04:42:23;11.20;;;3.10;;
54705;SDS011;40603;48.774;8.916;2022-10-31T04:44:48;7.15;;;2.83;;
54705;SDS011;40603;48.774;8.916;2022-10-31T04:47:14;6.53;;;3.08;;
54705;SDS011;40603;48.774;8.916;2022-10-31T04:49:39;6.25;;;3.25;;
54705;SDS011;40603;48.774;8.916;2022-10-31T04:52:04;6.32;;;3.00;;
54705;SDS011;40603;48.774;8.916;2022-10-31T04:54:30;6.10;;;3.22;;
54705;SDS011;40603;48.774;8.916;2022-10-31T04:56:55;7.40;;;3.78;;
54705;SDS011;40603;48.774;8.916;2022-10-31T04:59:20;6.28;;;4.00;;
54705;SDS011;40603;48.774;8.916;2022-10-31T05:01:46;5.60;;;2.78;;
54705;SDS011;40603;48.774;8.916;2022-10-31T05:04:11;6.63;;;2.78;;
54705;SDS011;40603;48.774;8.916;2022-10-31T05:06:36;6.18;;;2.90;;
54705;SDS011;40603;48.774;8.916;2022-10-31T05:09:01;4.75;;;2.40;;
54705;SDS011;40603;48.774;8.916;2022-10-31T05:11:27;3.50;;;2.70;;
54705;SDS011;40603;48.774;8.916;2022-10-31T05:13:52;4.97;;;2.40;;
54705;SDS011;40603;48.774;8.916;2022-10-31T05:16:17;9.70;;;2.80;;
54705;SDS011;40603;48.774;8.916;2022-10-31T05:18:43;9.32;;;2.95;;
54705;SDS011;40603;48.774;8.916;2022-10-31T05:21:08;5.72;;;2.97;;
54705;SDS011;40603;48.774;8.916;2022-10-31T05:23:33;4.82;;;2.95;;
54705;SDS011;40603;48.774;8.916;2022-10-31T05:25:58;5.88;;;3.22;;
54705;SDS011;40603;48.774;8.916;2022-10-31T05:28:24;6.43;;;2.83;;
54705;SDS011;40603;48.774;8.916;2022-10-31T05:30:49;6.45;;;2.75;;
54705;SDS011;40603;48.774;8.916;2022-10-31T05:33:14;8.10;;;2.78;;
54705;SDS011;40603;48.774;8.916;2022-10-31T05:35:40;9.40;;;2.97;;
54705;SDS011;40603;48.774;8.916;2022-10-31T05:38:05;6.28;;;3.60;;
54705;SDS011;40603;48.774;8.916;2022-10-31T05:40:30;5.90;;;2.92;;
54705;SDS011;40603;48.774;8.916;2022-10-31T05:42:56;4.88;;;2.60;;
54705;SDS011;40603;48.774;8.916;2022-10-31T05:45:23;3.60;;;2.50;;
54705;SDS011;40603;48.774;8.916;2022-10-31T05:47:49;7.70;;;2.65;;
54705;SDS011;40603;48.774;8.916;2022-10-31T05:50:21;5.63;;;2.30;;
54705;SDS011;40603;48.774;8.916;2022-10-31T05:52:53;5.47;;;2.72;;
54705;SDS011;40603;48.774;8.916;2022-10-31T05:55:20;6.82;;;2.78;;
54705;SDS011;40603;48.774;8.916;2022-10-31T05:57:45;4.45;;;2.55;;
54705;SDS011;40603;48.774;8.916;2022-10-31T06:00:10;5.05;;;2.33;;
54705;SDS011;40603;48.774;8.916;2022-10-31T06:02:36;7.95;;;3.20;;
54705;SDS011;40603;48.774;8.916;2022-10-31T06:05:01;6.78;;;2.53;;
54705;SDS011;40603;48.774;8.916;2022-10-31T06:07:31;4.00;;;2.90;;
54705;SDS011;40603;48.774;8.916;2022-10-31T06:09:57;5.50;;;3.20;;
54705;SDS011;40603;48.774;8.916;2022-10-31T06:12:22;6.97;;;2.92;;
54705;SDS011;40603;48.774;8.916;2022-10-31T06:14:47;9.15;;;3.33;;
54705;SDS011;40603;48.774;8.916;2022-10-31T06:17:12;12.18;;;3.17;;
54705;SDS011;40603;48.774;8.916;2022-10-31T06:19:38;8.18;;;2.88;;
54705;SDS011;40603;48.774;8.916;2022-10-31T06:22:03;6.07;;;2.88;;
54705;SDS011;40603;48.774;8.916;2022-10-31T06:24:28;5.65;;;3.38;;
54705;SDS011;40603;48.774;8.916;2022-10-31T06:26:54;4.63;;;2.92;;
54705;SDS011;40603;48.774;8.916;2022-10-31T06:29:19;5.20;;;2.78;;
54705;SDS011;40603;48.774;8.916;2022-10-31T06:31:44;4.20;;;2.63;;
54705;SDS011;40603;48.774;8.916;2022-10-31T06:34:09;6.00;;;2.38;;
54705;SDS011;40603;48.774;8.916;2022-10-31T06:36:35;5.20;;;2.80;;
54705;SDS011;40603;48.774;8.916;2022-10-31T06:39:00;5.95;;;2.17;;
54705;SDS011;40603;48.774;8.916;2022-10-31T06:41:25;5.43;;;2.83;;
54705;SDS011;40603;48.774;8.916;2022-10-31T06:43:51;5.53;;;3.00;;
54705;SDS011;40603;48.774;8.916;2022-10-31T06:46:16;4.25;;;2.72;;
54705;SDS011;40603;48.774;8.916;2022-10-31T06:48:41;6.00;;;3.25;;
54705;SDS011;40603;48.774;8.916;2022-10-31T06:51:07;10.45;;;2.80;;
54705;SDS011;40603;48.774;8.916;2022-10-31T06:53:32;4.93;;;2.47;;
54705;SDS011;40603;48.774;8.916;2022-10-31T06:55:57;6.20;;;3.00;;
54705;SDS011;40603;48.774;8.916;2022-10-31T06:58:23;7.43;;;2.70;;
54705;SDS011;40603;48.774;8.916;2022-10-31T07:00:49;8.77;;;3.25;;
54705;SDS011;40603;48.774;8.916;2022-10-31T07:03:14;9.07;;;2.92;;
54705;SDS011;40603;48.774;8.916;2022-10-31T07:05:40;6.93;;;2.55;;
54705;SDS011;40603;48.774;8.916;2022-10-31T07:08:07;7.85;;;3.28;;
54705;SDS011;40603;48.774;8.916;2022-10-31T07:10:35;5.20;;;2.72;;
54705;SDS011;40603;48.774;8.916;2022-10-31T07:13:02;5.70;;;2.53;;
54705;SDS011;40603;48.774;8.916;2022-10-31T07:15:30;5.18;;;2.80;;
54705;SDS011;40603;48.774;8.916;2022-10-31T07:17:59;12.48;;;3.83;;
54705;SDS011;40603;48.774;8.916;2022-10-31T07:20:28;4.88;;;3.03;;
54705;SDS011;40603;48.774;8.916;2022-10-31T07:22:53;9.10;;;3.80;;
54705;SDS011;40603;48.774;8.916;2022-10-31T07:25:19;7.95;;;2.95;;
54705;SDS011;40603;48.774;8.916;2022-10-31T07:27:44;5.50;;;2.63;;
54705;SDS011;40603;48.774;8.916;2022-10-31T07:30:10;4.95;;;2.80;;
54705;SDS011;40603;48.774;8.916;2022-10-31T07:32:43;4.28;;;2.70;;
54705;SDS011;40603;48.774;8.916;2022-10-31T07:35:11;8.70;;;3.17;;
54705;SDS011;40603;48.774;8.916;2022-10-31T07:37:38;6.10;;;3.05;;
54705;SDS011;40603;48.774;8.916;2022-10-31T07:40:04;4.63;;;3.30;;
54705;SDS011;40603;48.774;8.916;2022-10-31T07:42:52;7.68;;;3.60;;
54705;SDS011;40603;48.774;8.916;2022-10-31T07:45:18;8.00;;;3.90;;
54705;SDS011;40603;48.774;8.916;2022-10-31T07:47:53;12.85;;;3.70;;
54705;SDS011;40603;48.774;8.916;2022-10-31T07:50:21;9.90;;;3.63;;
54705;SDS011;40603;48.774;8.916;2022-10-31T07:52:48;11.77;;;4.00;;
54705;SDS011;40603;48.774;8.916;2022-10-31T07:55:29;6.25;;;3.70;;
54705;SDS011;40603;48.774;8.916;2022-10-31T07:57:58;9.70;;;3.42;;
54705;SDS011;40603;48.774;8.916;2022-10-31T08:00:28;10.27;;;3.33;;
54705;SDS011;40603;48.774;8.916;2022-10-31T08:03:00;11.73;;;4.28;;
54705;SDS011;40603;48.774;8.916;2022-10-31T08:05:27;6.95;;;3.50;;
54705;SDS011;40603;48.774;8.916;2022-10-31T08:07:53;13.32;;;4.00;;
54705;SDS011;40603;48.774;8.916;2022-10-31T08:10:19;8.88;;;3.85;;
54705;SDS011;40603;48.774;8.916;2022-10-31T08:12:44;12.32;;;3.60;;
54705;SDS011;40603;48.774;8.916;2022-10-31T08:15:10;8.82;;;3.95;;
54705;SDS011;40603;48.774;8.916;2022-10-31T08:17:35;7.80;;;4.40;;
54705;SDS011;40603;48.774;8.916;2022-10-31T08:20:02;12.55;;;3.50;;
54705;SDS011;40603;48.774;8.916;2022-10-31T08:22:28;9.05;;;3.80;;
54705;SDS011;40603;48.774;8.916;2022-10-31T08:24:53;11.18;;;4.35;;
54705;SDS011;40603;48.774;8.916;2022-10-31T08:27:19;13.18;;;4.28;;
54705;SDS011;40603;48.774;8.916;2022-10-31T08:29:44;10.88;;;4.10;;
54705;SDS011;40603;48.774;8.916;2022-10-31T08:32:09;11.32;;;4.03;;
54705;SDS011;40603;48.774;8.916;2022-10-31T08:34:34;10.95;;;4.10;;
54705;SDS011;40603;48.774;8.916;2022-10-31T08:37:00;9.98;;;4.22;;
54705;SDS011;40603;48.774;8.916;2022-10-31T08:39:25;8.13;;;3.67;;
54705;SDS011;40603;48.774;8.916;2022-10-31T08:41:50;9.15;;;4.18;;
54705;SDS011;40603;48.774;8.916;2022-10-31T08:44:16;11.82;;;4.05;;
54705;SDS011;40603;48.774;8.916;2022-10-31T08:46:41;11.45;;;4.55;;
54705;SDS011;40603;48.774;8.916;2022-10-31T08:49:06;12.15;;;4.55;;
54705;SDS011;40603;48.774;8.916;2022-10-31T08:51:32;11.98;;;5.10;;
54705;SDS011;40603;48.774;8.916;2022-10-31T08:53:57;16.63;;;5.10;;
54705;SDS011;40603;48.774;8.916;2022-10-31T08:56:22;15.60;;;5.15;;
54705;SDS011;40603;48.774;8.916;2022-10-31T08:58:48;13.00;;;4.47;;
54705;SDS011;40603;48.774;8.916;2022-10-31T09:01:13;15.70;;;5.03;;
54705;SDS011;40603;48.774;8.916;2022-10-31T09:03:39;11.77;;;5.35;;
54705;SDS011;40603;48.774;8.916;2022-10-31T09:06:04;11.02;;;4.43;;
54705;SDS011;40603;48.774;8.916;2022-10-31T09:08:33;11.05;;;4.95;;
54705;SDS011;40603;48.774;8.916;2022-10-31T09:10:58;9.95;;;4.88;;
54705;SDS011;40603;48.774;8.916;2022-10-31T09:13:24;16.00;;;4.90;;
54705;SDS011;40603;48.774;8.916;2022-10-31T09:15:50;10.75;;;4.47;;
54705;SDS011;40603;48.774;8.916;2022-10-31T09:18:16;12.20;;;4.60;;
54705;SDS011;40603;48.774;8.916;2022-10-31T09:20:44;10.25;;;4.90;;
54705;SDS011;40603;48.774;8.916;2022-10-31T09:23:11;12.57;;;4.20;;
54705;SDS011;40603;48.774;8.916;2022-10-31T09:25:41;12.90;;;4.25;;
54705;SDS011;40603;48.774;8.916;2022-10-31T09:28:07;10.77;;;4.32;;
54705;SDS011;40603;48.774;8.916;2022-10-31T09:30:35;14.00;;;4.40;;
54705;SDS011;40603;48.774;8.916;2022-10-31T09:33:05;9.82;;;4.28;;
54705;SDS011;40603;48.774;8.916;2022-10-31T09:35:32;15.70;;;4.57;;
54705;SDS011;40603;48.774;8.916;2022-10-31T09:37:58;11.30;;;3.72;;
54705;SDS011;40603;48.774;8.916;2022-10-31T09:46:01;23.15;;;4.60;;
54705;SDS011;40603;48.774;8.916;2022-10-31T09:51:56;8.38;;;3.83;;
54705;SDS011;40603;48.774;8.916;2022-10-31T09:54:38;11.25;;;4.47;;
54705;SDS011;40603;48.774;8.916;2022-10-31T09:57:18;18.00;;;5.75;;
54705;SDS011;40603;48.774;8.916;2022-10-31T09:59:47;15.40;;;4.53;;
54705;SDS011;40603;48.774;8.916;2022-10-31T10:02:15;14.75;;;4.15;;
54705;SDS011;40603;48.774;8.916;2022-10-31T10:04:48;14.43;;;4.28;;
54705;SDS011;40603;48.774;8.916;2022-10-31T10:07:32;17.02;;;4.05;;
54705;SDS011;40603;48.774;8.916;2022-10-31T10:10:18;10.88;;;3.90;;
54705;SDS011;40603;48.774;8.916;2022-10-31T10:16:06;14.32;;;4.65;;
54705;SDS011;40603;48.774;8.916;2022-10-31T10:18:49;8.77;;;4.57;;
54705;SDS011;40603;48.774;8.916;2022-10-31T10:21:36;23.70;;;4.97;;
54705;SDS011;40603;48.774;8.916;2022-10-31T10:24:31;15.95;;;4.72;;
54705;SDS011;40603;48.774;8.916;2022-10-31T10:27:16;12.27;;;4.25;;
54705;SDS011;40603;48.774;8.916;2022-10-31T10:32:37;10.10;;;4.15;;
54705;SDS011;40603;48.774;8.916;2022-10-31T10:35:19;15.20;;;4.80;;
54705;SDS011;40603;48.774;8.916;2022-10-31T10:37:49;11.25;;;4.63;;
54705;SDS011;40603;48.774;8.916;2022-10-31T10:40:19;6.47;;;3.88;;
54705;SDS011;40603;48.774;8.916;2022-10-31T10:42:59;18.48;;;4.63;;
54705;SDS011;40603;48.774;8.916;2022-10-31T10:49:12;12.48;;;5.13;;
54705;SDS011;40603;48.774;8.916;2022-10-31T11:00:16;7.33;;;4.17;;
54705;SDS011;40603;48.774;8.916;2022-10-31T11:02:42;6.15;;;3.85;;
54705;SDS011;40603;48.774;8.916;2022-10-31T11:05:11;12.55;;;4.15;;
54705;SDS011;40603;48.774;8.916;2022-10-31T11:07:40;7.35;;;3.85;;
54705;SDS011;40603;48.774;8.916;2022-10-31T11:10:05;9.68;;;3.40;;
54705;SDS011;40603;48.774;8.916;2022-10-31T11:12:38;8.13;;;3.28;;
54705;SDS011;40603;48.774;8.916;2022-10-31T11:15:15;11.18;;;3.90;;
54705;SDS011;40603;48.774;8.916;2022-10-31T11:17:46;10.63;;;3.28;;
54705;SDS011;40603;48.774;8.916;2022-10-31T11:22:39;7.07;;;2.97;;
54705;SDS011;40603;48.774;8.916;2022-10-31T11:27:43;10.70;;;3.40;;
54705;SDS011;40603;48.774;8.916;2022-10-31T11:30:09;9.00;;;3.53;;
54705;SDS011;40603;48.774;8.916;2022-10-31T11:32:34;7.85;;;3.10;;
54705;SDS011;40603;48.774;8.916;2022-10-31T11:35:00;9.98;;;3.45;;
54705;SDS011;40603;48.774;8.916;2022-10-31T11:37:29;10.43;;;3.72;;
54705;SDS011;40603;48.774;8.916;2022-10-31T11:39:57;11.25;;;4.07;;
54705;SDS011;40603;48.774;8.916;2022-10-31T11:42:38;6.90;;;3.20;;
54705;SDS011;40603;48.774;8.916;2022-10-31T11:47:32;10.35;;;3.25;;
54705;SDS011;40603;48.774;8.916;2022-10-31T11:50:02;8.13;;;3.60;;
54705;SDS011;40603;48.774;8.916;2022-10-31T11:52:36;8.10;;;2.88;;
54705;SDS011;40603;48.774;8.916;2022-10-31T11:57:47;9.45;;;3.20;;
54705;SDS011;40603;48.774;8.916;2022-10-31T12:00:20;8.68;;;3.60;;
54705;SDS011;40603;48.774;8.916;2022-10-31T12:02:46;7.38;;;3.67;;
54705;SDS011;40603;48.774;8.916;2022-10-31T12:05:17;10.18;;;4.00;;
54705;SDS011;40603;48.774;8.916;2022-10-31T12:07:44;8.15;;;3.88;;
54705;SDS011;40603;48.774;8.916;2022-10-31T12:10:10;10.40;;;3.47;;
54705;SDS011;40603;48.774;8.916;2022-10-31T12:15:28;8.43;;;3.45;;
54705;SDS011;40603;48.774;8.916;2022-10-31T12:17:58;9.25;;;3.50;;
54705;SDS011;40603;48.774;8.916;2022-10-31T12:23:25;12.02;;;3.45;;
54705;SDS011;40603;48.774;8.916;2022-10-31T12:26:09;16.20;;;4.40;;
54705;SDS011;40603;48.774;8.916;2022-10-31T12:31:48;14.13;;;3.67;;
54705;SDS011;40603;48.774;8.916;2022-10-31T12:37:15;8.02;;;3.15;;
54705;SDS011;40603;48.774;8.916;2022-10-31T12:42:48;12.07;;;4.35;;
54705;SDS011;40603;48.774;8.916;2022-10-31T12:45:37;9.32;;;3.92;;
54705;SDS011;40603;48.774;8.916;2022-10-31T12:48:10;5.90;;;2.90;;
54705;SDS011;40603;48.774;8.916;2022-10-31T12:50:47;10.52;;;3.47;;
54705;SDS011;40603;48.774;8.916;2022-10-31T12:59:41;16.00;;;3.95;;
54705;SDS011;40603;48.774;8.916;2022-10-31T13:07:19;10.18;;;3.45;;
54705;SDS011;40603;48.774;8.916;2022-10-31T13:12:24;12.43;;;4.00;;
54705;SDS011;40603;48.774;8.916;2022-10-31T13:14:54;6.90;;;3.00;;
54705;SDS011;40603;48.774;8.916;2022-10-31T13:17:37;5.30;;;3.47;;
54705;SDS011;40603;48.774;8.916;2022-10-31T13:22:54;14.75;;;4.28;;
54705;SDS011;40603;48.774;8.916;2022-10-31T13:25:24;12.07;;;4.00;;
54705;SDS011;40603;48.774;8.916;2022-10-31T13:30:27;12.52;;;4.70;;
54705;SDS011;40603;48.774;8.916;2022-10-31T13:33:03;10.55;;;3.88;;
54705;SDS011;40603;48.774;8.916;2022-10-31T13:35:54;12.75;;;4.80;;
54705;SDS011;40603;48.774;8.916;2022-10-31T13:38:27;17.92;;;4.85;;
54705;SDS011;40603;48.774;8.916;2022-10-31T13:40:57;9.70;;;4.05;;
54705;SDS011;40603;48.774;8.916;2022-10-31T13:43:41;7.53;;;3.90;;
54705;SDS011;40603;48.774;8.916;2022-10-31T13:46:26;11.70;;;4.90;;
54705;SDS011;40603;48.774;8.916;2022-10-31T13:48:58;9.68;;;3.95;;
54705;SDS011;40603;48.774;8.916;2022-10-31T13:51:31;14.05;;;4.20;;
54705;SDS011;40603;48.774;8.916;2022-10-31T13:54:00;11.68;;;3.33;;
54705;SDS011;40603;48.774;8.916;2022-10-31T13:56:30;9.60;;;3.60;;
54705;SDS011;40603;48.774;8.916;2022-10-31T13:59:05;11.32;;;3.53;;
54705;SDS011;40603;48.774;8.916;2022-10-31T14:01:45;12.93;;;3.30;;
54705;SDS011;40603;48.774;8.916;2022-10-31T14:04:22;9.05;;;3.88;;
54705;SDS011;40603;48.774;8.916;2022-10-31T14:06:52;8.27;;;3.92;;
54705;SDS011;40603;48.774;8.916;2022-10-31T14:09:32;11.85;;;4.07;;
54705;SDS011;40603;48.774;8.916;2022-10-31T14:12:04;13.20;;;3.88;;
54705;SDS011;40603;48.774;8.916;2022-10-31T14:14:39;6.65;;;3.20;;
54705;SDS011;40603;48.774;8.916;2022-10-31T14:17:12;8.13;;;3.50;;
54705;SDS011;40603;48.774;8.916;2022-10-31T14:19:42;10.38;;;3.83;;
54705;SDS011;40603;48.774;8.916;2022-10-31T14:22:19;12.63;;;3.10;;
54705;SDS011;40603;48.774;8.916;2022-10-31T14:24:45;15.63;;;3.97;;
54705;SDS011;40603;48.774;8.916;2022-10-31T14:29:46;11.23;;;3.83;;
54705;SDS011;40603;48.774;8.916;2022-10-31T14:37:26;9.75;;;3.78;;
54705;SDS011;40603;48.774;8.916;2022-10-31T14:45:47;10.07;;;4.22;;
54705;SDS011;40603;48.774;8.916;2022-10-31T14:48:29;8.45;;;3.75;;
54705;SDS011;40603;48.774;8.916;2022-10-31T14:51:19;21.40;;;4.07;;
54705;SDS011;40603;48.774;8.916;2022-10-31T14:53:53;10.75;;;3.85;;
54705;SDS011;40603;48.774;8.916;2022-10-31T14:56:24;10.73;;;4.80;;
54705;SDS011;40603;48.774;8.916;2022-10-31T14:58:51;15.07;;;4.18;;
54705;SDS011;40603;48.774;8.916;2022-10-31T15:01:21;9.82;;;4.18;;
54705;SDS011;40603;48.774;8.916;2022-10-31T15:03:49;12.38;;;3.90;;
54705;SDS011;40603;48.774;8.916;2022-10-31T15:06:16;10.13;;;3.63;;
54705;SDS011;40603;48.774;8.916;2022-10-31T15:08:45;10.13;;;4.15;;
54705;SDS011;40603;48.774;8.916;2022-10-31T15:11:24;13.43;;;3.75;;
54705;SDS011;40603;48.774;8.916;2022-10-31T15:13:57;15.38;;;4.43;;
54705;SDS011;40603;48.774;8.916;2022-10-31T15:16:31;13.68;;;4.10;;
54705;SDS011;40603;48.774;8.916;2022-10-31T15:19:00;14.68;;;4.70;;
54705;SDS011;40603;48.774;8.916;2022-10-31T15:21:28;14.25;;;5.53;;
54705;SDS011;40603;48.774;8.916;2022-10-31T15:23:54;13.18;;;5.13;;
54705;SDS011;40603;48.774;8.916;2022-10-31T15:26:21;11.52;;;4.78;;
54705;SDS011;40603;48.774;8.916;2022-10-31T15:29:02;13.05;;;4.50;;
54705;SDS011;40603;48.774;8.916;2022-10-31T15:31:29;16.80;;;4.93;;
54705;SDS011;40603;48.774;8.916;2022-10-31T15:33:56;12.32;;;4.75;;
54705;SDS011;40603;48.774;8.916;2022-10-31T15:36:25;15.40;;;4.43;;
54705;SDS011;40603;48.774;8.916;2022-10-31T15:38:51;14.00;;;4.85;;
54705;SDS011;40603;48.774;8.916;2022-10-31T15:43:49;17.25;;;5.78;;
54705;SDS011;40603;48.774;8.916;2022-10-31T15:46:15;13.73;;;5.50;;
54705;SDS011;40603;48.774;8.916;2022-10-31T15:48:43;24.15;;;6.32;;
54705;SDS011;40603;48.774;8.916;2022-10-31T15:51:09;13.77;;;5.93;;
54705;SDS011;40603;48.774;8.916;2022-10-31T15:53:36;13.07;;;4.97;;
54705;SDS011;40603;48.774;8.916;2022-10-31T15:56:06;12.77;;;4.68;;
54705;SDS011;40603;48.774;8.916;2022-10-31T16:03:31;14.18;;;5.65;;
54705;SDS011;40603;48.774;8.916;2022-10-31T16:06:02;19.55;;;5.95;;
54705;SDS011;40603;48.774;8.916;2022-10-31T16:10:54;14.87;;;6.23;;
54705;SDS011;40603;48.774;8.916;2022-10-31T16:13:23;18.02;;;7.75;;
54705;SDS011;40603;48.774;8.916;2022-10-31T16:15:54;12.20;;;6.82;;
54705;SDS011;40603;48.774;8.916;2022-10-31T16:18:20;20.10;;;7.15;;
54705;SDS011;40603;48.774;8.916;2022-10-31T16:20:50;16.65;;;7.95;;
54705;SDS011;40603;48.774;8.916;2022-10-31T16:23:18;19.98;;;7.65;;
54705;SDS011;40603;48.774;8.916;2022-10-31T16:25:43;15.80;;;6.45;;
54705;SDS011;40603;48.774;8.916;2022-10-31T16:28:13;16.50;;;6.90;;
54705;SDS011;40603;48.774;8.916;2022-10-31T16:30:45;14.95;;;6.57;;
54705;SDS011;40603;48.774;8.916;2022-10-31T16:35:58;18.00;;;7.45;;
54705;SDS011;40603;48.774;8.916;2022-10-31T16:38:24;22.92;;;9.02;;
54705;SDS011;40603;48.774;8.916;2022-10-31T16:40:50;13.05;;;6.93;;
54705;SDS011;40603;48.774;8.916;2022-10-31T16:43:16;13.43;;;7.10;;
54705;SDS011;40603;48.774;8.916;2022-10-31T16:45:46;18.63;;;6.10;;
54705;SDS011;40603;48.774;8.916;2022-10-31T16:48:14;15.63;;;7.28;;
54705;SDS011;40603;48.774;8.916;2022-10-31T16:50:41;29.20;;;10.50;;
54705;SDS011;40603;48.774;8.916;2022-10-31T16:53:07;39.45;;;17.85;;
54705;SDS011;40603;48.774;8.916;2022-10-31T16:55:33;25.50;;;12.52;;
54705;SDS011;40603;48.774;8.916;2022-10-31T16:58:00;29.23;;;10.50;;